createdAt,value
2022-09-06T01:45:11.123Z,30.03
2022-09-06T01:51:17.436Z,30.03
2022-09-06T02:08:17.312Z,29.79
2022-09-06T02:18:55.093Z,29.65
2022-09-06T02:25:15.929Z,29.44
2022-09-06T02:27:46.695Z,29.35
2022-09-06T02:30:46.178Z,29.30
2022-09-06T02:33:49.044Z,29.21
2022-09-06T02:36:44.321Z,29.17
2022-09-06T02:39:45.486Z,29.14
2022-09-06T02:42:44.211Z,29.13
2022-09-06T02:45:17.741Z,29.14
2022-09-06T02:47:58.163Z,29.14
2022-09-06T02:50:50.042Z,29.10
2022-09-06T02:53:45.205Z,29.08
2022-09-06T02:56:19.217Z,29.05
2022-09-06T02:58:54.951Z,29.00
2022-09-06T03:01:50.961Z,28.98
2022-09-06T03:04:49.868Z,28.94
2022-09-06T03:13:56.389Z,28.86
2022-09-06T03:16:50.485Z,28.77
2022-09-06T03:23:14.768Z,28.65
2022-09-06T03:25:47.272Z,28.62
2022-09-06T03:28:57.579Z,28.63
2022-09-06T03:31:53.022Z,28.63
2022-09-06T03:34:49.740Z,28.60
2022-09-06T03:37:49.265Z,28.57
2022-09-06T03:40:29.013Z,28.53
2022-09-06T03:43:46.525Z,28.52
2022-09-06T03:45:53.568Z,28.48
2022-09-06T03:51:55.289Z,28.40
2022-09-06T03:55:05.282Z,28.34
2022-09-06T04:00:54.291Z,28.17
2022-09-06T04:03:51.679Z,28.12
2022-09-06T04:06:51.302Z,28.07
2022-09-06T04:09:53.357Z,27.99
2022-09-06T04:22:54.677Z,27.81
2022-09-06T04:25:53.981Z,27.73
2022-09-06T04:28:57.350Z,27.65
2022-09-06T04:32:58.265Z,27.59
2022-09-06T04:34:56.553Z,27.51
2022-09-06T04:37:53.842Z,27.42
2022-09-06T04:43:55.072Z,27.28
2022-09-06T04:46:37.721Z,27.24
2022-09-06T04:52:55.299Z,27.14
2022-09-06T04:56:00.557Z,27.14
2022-09-06T04:58:57.373Z,27.18
2022-09-06T05:01:55.911Z,27.21
2022-09-06T05:07:59.299Z,27.23
2022-09-06T05:13:56.282Z,27.23
2022-09-06T05:17:00.271Z,27.22
2022-09-06T05:19:42.025Z,27.14
2022-09-06T05:29:04.367Z,27.02
2022-09-06T05:35:01.647Z,26.98
2022-09-06T05:40:59.413Z,26.93
2022-09-06T05:43:56.297Z,26.89
2022-09-06T05:46:58.894Z,26.90
2022-09-06T05:50:03.074Z,26.89
2022-09-06T05:52:35.565Z,26.83
2022-09-06T06:03:01.219Z,26.81
2022-09-06T06:06:00.887Z,26.78
2022-09-06T06:14:29.656Z,26.64
2022-09-06T06:17:03.290Z,26.61
2022-09-06T06:19:59.262Z,26.65
2022-09-06T06:22:59.889Z,26.62
2022-09-06T06:25:34.261Z,26.60
2022-09-06T06:28:05.439Z,26.57
2022-09-06T06:34:05.339Z,26.51
2022-09-06T06:36:39.502Z,26.44
2022-09-06T06:46:03.928Z,26.30
2022-09-06T06:49:05.494Z,26.22
2022-09-06T06:52:04.434Z,26.13
2022-09-06T06:55:00.753Z,26.02
2022-09-06T06:58:00.337Z,25.87
2022-09-06T07:12:03.227Z,25.64
2022-09-06T07:15:02.337Z,25.61
2022-09-06T07:33:02.544Z,25.40
2022-09-06T07:35:30.905Z,25.39
2022-09-06T07:38:05.715Z,25.45
2022-09-06T07:44:05.146Z,25.49
2022-09-06T07:56:06.591Z,25.49
2022-09-06T08:04:39.589Z,25.44
2022-09-06T08:10:06.867Z,25.44
2022-09-06T08:15:36.287Z,25.46
2022-09-06T08:18:05.631Z,25.33
2022-09-06T08:26:54.011Z,25.14
2022-09-06T08:30:25.529Z,25.13
2022-09-06T08:37:06.128Z,25.07
2022-09-06T08:40:05.351Z,25.02
2022-09-06T08:43:12.940Z,25.11
2022-09-06T08:49:08.694Z,25.03
2022-09-06T08:52:14.187Z,25.08
2022-09-06T08:55:08.530Z,25.09
2022-09-06T08:58:14.296Z,25.02
2022-09-06T09:01:13.691Z,24.97
2022-09-06T09:07:37.568Z,24.90
2022-09-06T09:09:35.863Z,24.95
2022-09-06T09:10:48.791Z,24.83
2022-09-06T09:13:49.123Z,24.76
2022-09-06T09:20:11.853Z,24.75
2022-09-06T09:22:41.240Z,24.71
2022-09-06T09:25:14.066Z,24.74
2022-09-06T09:27:42.980Z,24.77
2022-09-06T09:33:37.979Z,24.79
2022-09-06T09:36:14.003Z,24.74
2022-09-06T09:38:47.284Z,24.74
2022-09-06T09:41:45.412Z,24.73
2022-09-06T09:44:40.187Z,24.65
2022-09-06T09:47:34.793Z,24.60
2022-09-06T09:50:41.061Z,24.58
2022-09-06T09:53:14.813Z,24.56
2022-09-06T09:55:44.988Z,24.53
2022-09-06T09:58:40.871Z,24.53
2022-09-06T10:01:39.266Z,24.52
2022-09-06T10:07:40.984Z,24.51
2022-09-06T10:10:42.721Z,24.53
2022-09-06T10:13:40.393Z,24.49
2022-09-06T10:16:11.669Z,24.46
2022-09-06T10:18:45.308Z,24.42
2022-09-06T10:21:42.477Z,24.39
2022-09-06T10:24:47.682Z,24.35
2022-09-06T10:27:55.446Z,24.25
2022-09-06T10:30:48.973Z,24.19
2022-09-06T10:33:48.102Z,24.19
2022-09-06T10:36:41.777Z,24.14
2022-09-06T10:39:50.193Z,24.13
2022-09-06T10:42:46.594Z,24.13
2022-09-06T10:45:46.853Z,24.15
2022-09-06T10:48:45.504Z,24.06
2022-09-06T10:51:44.352Z,23.97
2022-09-06T10:54:15.333Z,23.89
2022-09-06T10:56:45.138Z,23.86
2022-09-06T10:59:42.938Z,23.82
2022-09-06T11:02:42.901Z,23.80
2022-09-06T11:05:41.250Z,23.79
2022-09-06T11:11:42.584Z,23.77
2022-09-06T11:14:16.388Z,23.79
2022-09-06T11:16:50.704Z,23.79
2022-09-06T11:19:53.505Z,23.80
2022-09-06T11:22:58.345Z,23.79
2022-09-06T11:26:16.766Z,23.78
2022-09-06T11:28:49.237Z,23.77
2022-09-06T11:34:55.452Z,23.80
2022-09-06T11:37:34.192Z,23.80
2022-09-06T11:42:53.841Z,23.90
2022-09-06T11:45:52.938Z,23.95
2022-09-06T11:48:44.811Z,23.95
2022-09-06T11:51:45.718Z,23.93
2022-09-06T11:54:19.565Z,23.93
2022-09-06T11:56:47.877Z,23.96
2022-09-06T11:59:25.181Z,23.95
2022-09-06T12:06:48.807Z,23.81
2022-09-06T12:10:14.885Z,23.78
2022-09-06T12:12:59.265Z,23.70
2022-09-06T12:25:55.745Z,23.55
2022-09-06T12:28:51.841Z,23.52
2022-09-06T12:31:45.105Z,23.49
2022-09-06T12:34:41.299Z,23.44
2022-09-06T12:37:12.479Z,23.39
2022-09-06T12:39:45.477Z,23.37
2022-09-06T12:42:19.504Z,23.35
2022-09-06T12:44:52.102Z,23.35
2022-09-06T12:47:34.387Z,23.35
2022-09-06T12:50:19.548Z,23.33
2022-09-06T12:52:53.546Z,23.30
2022-09-06T12:55:34.222Z,23.29
2022-09-06T12:58:11.591Z,23.30
2022-09-06T13:00:54.092Z,23.36
2022-09-06T13:03:49.387Z,23.43
2022-09-06T13:06:47.907Z,23.47
2022-09-06T13:09:21.366Z,23.53
2022-09-06T13:11:53.292Z,23.57
2022-09-06T13:14:34.035Z,23.59
2022-09-06T13:17:02.990Z,23.59
2022-09-06T13:19:39.196Z,23.57
2022-09-06T13:22:14.879Z,23.57
2022-09-06T13:24:48.317Z,23.58
2022-09-06T13:27:33.291Z,23.56
2022-09-06T13:30:13.863Z,23.50
2022-09-06T13:32:49.194Z,23.51
2022-09-06T13:35:30.458Z,23.53
2022-09-06T13:38:35.823Z,23.54
2022-09-06T13:41:27.160Z,23.53
2022-09-06T13:44:19.564Z,23.54
2022-09-06T13:54:56.409Z,23.54
2022-09-06T14:10:25.345Z,23.50
2022-09-06T14:22:37.825Z,23.40
2022-09-06T14:29:56.015Z,23.45
2022-09-06T14:35:22.995Z,23.54
2022-09-06T14:44:29.593Z,23.64
2022-09-06T14:47:24.289Z,23.72
2022-09-06T14:50:27.910Z,23.79
2022-09-06T15:09:24.447Z,24.27
2022-09-06T15:12:24.740Z,24.40
2022-09-06T15:22:25.736Z,24.81
2022-09-06T15:25:09.100Z,24.94
2022-09-06T15:28:40.849Z,25.10
2022-09-06T15:31:11.871Z,25.30
2022-09-06T15:34:27.945Z,25.58
2022-09-06T15:41:21.862Z,26.17
2022-09-06T15:47:24.952Z,26.49
2022-09-06T15:50:47.642Z,26.59
2022-09-06T15:56:23.347Z,26.60
2022-09-06T15:59:23.318Z,26.71
2022-09-06T16:01:52.617Z,26.80
2022-09-06T16:04:23.330Z,26.89
2022-09-06T16:06:51.916Z,26.98
2022-09-06T16:09:23.936Z,27.13
2022-09-06T16:11:52.942Z,27.29
2022-09-06T16:14:27.173Z,27.45
2022-09-06T16:17:28.291Z,27.56
2022-09-06T16:19:56.904Z,27.67
2022-09-06T16:22:28.078Z,27.79
2022-09-06T16:24:57.043Z,27.89
2022-09-06T16:27:28.465Z,28.02
2022-09-06T16:29:57.672Z,28.14
2022-09-06T16:32:29.433Z,28.26
2022-09-06T16:34:59.235Z,28.37
2022-09-06T16:40:25.789Z,28.58
2022-09-06T16:42:55.703Z,28.61
2022-09-06T16:45:27.129Z,28.71
2022-09-06T16:47:58.795Z,28.87
2022-09-06T16:50:27.374Z,29.02
2022-09-06T16:52:55.760Z,29.11
2022-09-06T16:55:24.150Z,29.19
2022-09-06T16:57:56.683Z,29.28
2022-09-06T17:00:24.946Z,29.38
2022-09-06T17:02:57.609Z,29.42
2022-09-06T17:05:25.957Z,29.37
2022-09-06T17:07:54.972Z,29.33
2022-09-06T17:10:23.404Z,29.27
2022-09-06T17:12:51.908Z,29.20
2022-09-06T17:15:20.718Z,29.15
2022-09-06T17:17:54.085Z,29.14
2022-09-06T17:20:25.290Z,29.15
2022-09-06T17:22:55.867Z,29.27
2022-09-06T17:25:27.107Z,29.41
2022-09-06T17:27:55.491Z,29.62
2022-09-06T17:30:23.824Z,29.72
2022-09-06T17:32:52.473Z,29.93
2022-09-06T17:35:26.861Z,30.18
2022-09-06T17:37:55.253Z,30.28
2022-09-06T17:40:26.712Z,30.49
2022-09-06T17:42:55.073Z,30.70
2022-09-06T17:45:26.330Z,30.95
2022-09-06T17:47:56.875Z,31.29
2022-09-06T17:50:26.243Z,31.61
2022-09-06T17:52:54.615Z,31.77
2022-09-06T17:55:25.248Z,31.96
2022-09-06T17:57:59.458Z,31.81
2022-09-06T18:00:27.792Z,31.56
2022-09-06T18:02:56.139Z,31.40
2022-09-06T18:05:46.356Z,31.28
2022-09-06T18:11:29.820Z,31.45
2022-09-06T18:14:29.376Z,31.38
2022-09-06T18:17:07.577Z,31.16
2022-09-06T18:20:29.127Z,31.03
2022-09-06T18:23:32.846Z,30.97
2022-09-06T18:26:08.916Z,30.87
2022-09-06T18:28:41.387Z,30.81
2022-09-06T18:31:14.723Z,30.92
2022-09-06T18:33:46.479Z,30.89
2022-09-06T18:36:26.600Z,30.76
2022-09-06T18:39:01.336Z,30.62
2022-09-06T18:41:54.775Z,30.52
2022-09-06T18:44:31.445Z,30.47
2022-09-06T18:47:04.591Z,30.48
2022-09-06T18:49:34.564Z,30.51
2022-09-06T18:52:06.498Z,30.55
2022-09-06T18:54:34.766Z,30.64
2022-09-06T18:57:02.970Z,30.72
2022-09-06T18:59:33.657Z,30.71
2022-09-06T19:02:02.051Z,30.69
2022-09-06T19:04:33.608Z,30.82
2022-09-06T19:07:03.719Z,31.02
2022-09-06T19:09:31.802Z,31.04
2022-09-06T19:12:13.518Z,31.05
2022-09-06T19:14:56.627Z,31.00
2022-09-06T19:17:33.925Z,31.06
2022-09-06T19:20:06.464Z,31.14
2022-09-06T19:22:34.767Z,31.21
2022-09-06T19:25:03.353Z,31.27
2022-09-06T19:33:24.012Z,31.21
2022-09-06T19:36:11.175Z,31.59
2022-09-06T19:39:02.588Z,32.35
2022-09-06T19:41:38.815Z,32.82
2022-09-06T19:44:12.229Z,33.01
2022-09-06T19:46:49.685Z,33.15
2022-09-06T19:49:20.006Z,33.29
2022-09-06T19:51:49.869Z,33.39
2022-09-06T19:54:19.056Z,33.51
2022-09-06T19:56:48.215Z,33.58
2022-09-06T19:59:19.667Z,33.67
2022-09-06T20:01:48.582Z,33.75
2022-09-06T20:04:20.846Z,33.82
2022-09-06T20:06:49.230Z,33.88
2022-09-06T20:09:17.600Z,33.93
2022-09-06T20:11:48.945Z,33.99
2022-09-06T20:14:20.188Z,34.07
2022-09-06T20:16:48.473Z,34.11
2022-09-06T20:19:21.009Z,34.12
2022-09-06T20:21:49.330Z,34.18
2022-09-06T20:24:17.667Z,34.23
2022-09-06T20:26:46.407Z,34.27
2022-09-06T20:29:19.900Z,34.26
2022-09-06T20:31:48.397Z,34.30
2022-09-06T20:34:19.538Z,34.33
2022-09-06T20:36:48.181Z,34.27
2022-09-06T20:39:16.892Z,34.13
2022-09-06T20:41:51.311Z,34.03
2022-09-06T20:44:20.639Z,34.10
2022-09-06T20:46:48.962Z,34.22
2022-09-06T20:49:22.460Z,34.25
2022-09-06T20:51:50.678Z,34.15
2022-09-06T20:54:22.188Z,34.18
2022-09-06T20:56:51.292Z,34.28
2022-09-06T20:59:19.635Z,34.35
2022-09-06T21:02:05.702Z,34.43
2022-09-06T21:04:50.367Z,34.43
2022-09-06T21:07:21.285Z,34.47
2022-09-06T21:09:49.473Z,34.49
2022-09-06T21:12:20.633Z,34.43
2022-09-06T21:14:52.058Z,34.44
2022-09-06T21:17:20.297Z,34.38
2022-09-06T21:19:51.476Z,34.38
2022-09-06T21:22:19.845Z,34.42
2022-09-06T21:24:50.811Z,34.46
2022-09-06T21:27:22.068Z,34.50
2022-09-06T21:29:50.287Z,34.51
2022-09-06T21:32:21.772Z,34.53
2022-09-06T21:34:50.621Z,34.50
2022-09-06T21:37:22.108Z,34.47
2022-09-06T21:39:50.832Z,34.48
2022-09-06T21:42:21.918Z,34.42
2022-09-06T21:44:50.180Z,34.37
2022-09-06T21:47:21.365Z,34.32
2022-09-06T21:49:51.030Z,34.28
2022-09-06T21:52:25.464Z,34.24
2022-09-06T21:54:53.673Z,34.15
2022-09-06T21:57:25.091Z,34.11
2022-09-06T21:59:53.477Z,34.01
2022-09-06T22:02:22.373Z,33.93
2022-09-06T22:04:51.588Z,33.90
2022-09-06T22:07:23.164Z,33.82
2022-09-06T22:09:51.507Z,33.74
2022-09-06T22:12:22.738Z,33.64
2022-09-06T22:14:54.669Z,33.60
2022-09-06T22:17:26.788Z,33.63
2022-09-06T22:34:19.087Z,33.07
2022-09-06T23:03:29.856Z,32.31
2022-09-06T23:06:58.260Z,32.27
2022-09-06T23:17:55.283Z,32.14
2022-09-06T23:20:56.081Z,32.11
2022-09-06T23:28:57.651Z,32.03
2022-09-06T23:31:53.127Z,32.01
2022-09-06T23:34:24.356Z,32.01
2022-09-06T23:37:00.926Z,31.96
2022-09-06T23:39:57.611Z,31.93
2022-09-06T23:45:24.050Z,31.81
2022-09-06T23:47:55.365Z,31.75
2022-09-06T23:50:23.730Z,31.68
2022-09-06T23:53:01.465Z,31.64
2022-09-06T23:56:55.352Z,31.53
